Time;durP1;ratioP1;P1;durP2;ratioP2;P2;SDS_P1;SDS_P2;PMS_P1;PMS_P2;Temp;Humidity;BMP_temperature;BMP_pressure;BME280_temperature;BME280_humidity;BME280_pressure;Samples;Min_cycle;Max_cycle;Signal;HPM_P1;HPM_P2
2024/01/26 05:43:28;;;;;;;3.10;2.50;;;;;;;1.48;100.00;99325.14;112949;1249;22426;-47
2024/01/26 05:45:54;;;;;;;2.80;2.50;;;;;;;1.47;100.00;99330.45;113044;1246;22217;-47
2024/01/26 05:48:21;;;;;;;3.80;3.00;;;;;;;1.48;100.00;99332.52;113032;1249;22378;-51
2024/01/26 05:50:48;;;;;;;3.80;3.00;;;;;;;1.49;100.00;99338.22;112878;1239;23104;-47
2024/01/26 05:53:15;;;;;;;3.90;2.90;;;;;;;1.49;100.00;99341.33;112998;1237;23148;-47
2024/01/26 05:55:42;;;;;;;4.20;3.20;;;;;;;1.49;100.00;99343.89;113050;1237;22398;-51
2024/01/26 05:58:09;;;;;;;3.60;2.80;;;;;;;1.48;100.00;99346.96;113006;1249;23086;-51
2024/01/26 06:00:36;;;;;;;3.50;2.70;;;;;;;1.48;100.00;99351.79;113033;1243;23019;-47
2024/01/26 06:03:03;;;;;;;2.80;2.30;;;;;;;1.47;100.00;99361.73;113004;1237;22435;-47
2024/01/26 06:05:30;;;;;;;3.50;2.60;;;;;;;1.44;100.00;99361.84;113012;1239;22901;-50
2024/01/26 06:07:59;;;;;;;3.00;2.50;;;;;;;1.41;100.00;99363.66;113008;1236;22464;-47
2024/01/26 06:10:25;;;;;;;3.70;2.50;;;;;;;1.39;100.00;99365.48;112932;1237;22339;-47
2024/01/26 06:12:52;;;;;;;3.70;2.70;;;;;;;1.39;100.00;99366.88;112914;1249;22771;-51
2024/01/26 06:15:19;;;;;;;4.10;2.10;;;;;;;1.40;100.00;99367.60;112858;1238;22359;-51
2024/01/26 06:17:47;;;;;;;2.70;2.20;;;;;;;1.40;100.00;99367.42;112873;1249;22432;-47
2024/01/26 06:20:14;;;;;;;3.30;1.80;;;;;;;1.40;100.00;99365.54;112852;1237;22235;-48
2024/01/26 06:22:41;;;;;;;2.60;1.90;;;;;;;1.43;100.00;99366.27;112760;1240;23455;-51
2024/01/26 06:25:13;;;;;;;3.20;2.20;;;;;;;1.44;100.00;99364.73;112677;1249;22737;-48
2024/01/26 06:28:04;;;;;;;2.90;2.30;;;;;;;1.45;100.00;99370.25;112228;1249;22310;-48
2024/01/26 06:30:37;;;;;;;2.70;2.20;;;;;;;1.45;100.00;99372.01;112563;1249;22443;-48
2024/01/26 06:33:07;;;;;;;3.20;2.40;;;;;;;1.47;100.00;99376.34;112406;1249;22285;-51
2024/01/26 06:35:36;;;;;;;3.30;2.20;;;;;;;1.51;100.00;99377.63;112519;1248;22323;-52
2024/01/26 06:38:03;;;;;;;3.70;2.60;;;;;;;1.55;100.00;99383.55;112744;1246;23233;-53
2024/01/26 06:40:30;;;;;;;2.50;2.30;;;;;;;1.59;100.00;99382.96;112717;1239;23098;-49
2024/01/26 06:48:01;;;;;;;4.30;2.40;;;;;;;1.70;100.00;99386.29;112758;1249;22330;-53
2024/01/26 06:51:05;;;;;;;3.00;2.30;;;;;;;1.71;100.00;99388.71;112753;1240;22997;-48
2024/01/26 06:53:50;;;;;;;3.60;2.70;;;;;;;1.71;100.00;99386.29;112543;1249;22800;-51
2024/01/26 06:56:17;;;;;;;5.90;3.40;;;;;;;1.71;100.00;99391.98;112785;1249;22986;-47
2024/01/26 06:58:45;;;;;;;7.80;3.80;;;;;;;1.72;100.00;99392.16;112840;1249;23288;-47
2024/01/26 07:01:12;;;;;;;7.40;4.60;;;;;;;1.75;100.00;99395.51;112925;1244;22188;-47
2024/01/26 07:03:39;;;;;;;5.40;3.80;;;;;;;1.79;100.00;99400.73;112932;1249;22405;-49
2024/01/26 07:06:06;;;;;;;6.00;3.90;;;;;;;1.80;100.00;99399.23;112881;1238;22956;-49
2024/01/26 07:08:34;;;;;;;5.00;3.60;;;;;;;1.80;100.00;99402.66;112821;1238;22380;-52
2024/01/26 07:11:07;;;;;;;5.70;3.10;;;;;;;1.81;100.00;99406.13;112927;1238;22445;-52
2024/01/26 07:13:36;;;;;;;3.20;2.60;;;;;;;1.81;100.00;99406.98;112915;1249;22267;-47
2024/01/26 07:16:15;;;;;;;7.30;3.00;;;;;;;1.80;100.00;99406.09;112568;1249;22402;-50
2024/01/26 07:19:49;;;;;;;3.60;2.90;;;;;;;1.80;100.00;99407.48;112227;1252;23378;-51
2024/01/26 07:22:28;;;;;;;3.90;3.20;;;;;;;1.81;100.00;99410.77;112259;1240;22995;-48
2024/01/26 07:24:55;;;;;;;;;;;;;;;1.84;100.00;99412.55;112203;1241;22507;-48
2024/01/26 07:27:21;;;;;;;3.60;2.20;;;;;;;1.89;100.00;99415.23;112182;1251;22423;-52
2024/01/26 07:29:48;;;;;;;3.20;2.50;;;;;;;1.96;100.00;99418.29;112267;1252;22403;-51
2024/01/26 07:32:15;;;;;;;5.30;2.80;;;;;;;2.03;100.00;99421.52;112376;1248;22906;-47
2024/01/26 07:34:42;;;;;;;4.80;2.60;;;;;;;2.06;100.00;99425.03;112395;1242;22422;-51
2024/01/26 07:37:14;;;;;;;;;;;;;;;2.07;100.00;99425.05;112432;1241;22404;-46
2024/01/26 07:39:41;;;;;;;4.40;2.80;;;;;;;2.10;100.00;99428.20;112300;1242;22434;-47
2024/01/26 07:42:08;;;;;;;2.80;2.50;;;;;;;2.11;100.00;99432.36;112262;1241;224837;-50
2024/01/26 07:44:34;;;;;;;3.40;2.90;;;;;;;2.11;100.00;99430.98;112469;1252;22302;-47
2024/01/26 07:47:01;;;;;;;3.00;2.50;;;;;;;2.15;100.00;99433.98;112541;1248;22449;-47
2024/01/26 07:49:28;;;;;;;3.60;2.80;;;;;;;2.21;100.00;99432.73;112608;1239;23191;-47
2024/01/26 07:51:59;;;;;;;4.40;2.50;;;;;;;2.25;100.00;99435.04;112620;1246;22305;-51
2024/01/26 07:54:26;;;;;;;6.50;3.30;;;;;;;2.27;100.00;99437.66;112608;1238;23065;-51
2024/01/26 07:56:53;;;;;;;4.80;3.20;;;;;;;2.27;100.00;99434.40;112768;1249;23533;-52
2024/01/26 07:59:19;;;;;;;6.70;3.80;;;;;;;2.25;100.00;99436.75;112919;1238;22465;-52
2024/01/26 08:01:46;;;;;;;5.20;3.70;;;;;;;2.22;100.00;99439.29;112879;1238;22372;-52
2024/01/26 08:04:13;;;;;;;5.70;3.40;;;;;;;2.20;100.00;99446.29;112837;1249;22385;-52
2024/01/26 08:06:40;;;;;;;4.70;3.50;;;;;;;2.20;100.00;99446.63;112948;1239;23167;-51
2024/01/26 08:09:10;;;;;;;6.10;3.60;;;;;;;2.22;100.00;99452.19;112915;1238;22381;-48
2024/01/26 08:11:39;;;;;;;3.90;3.00;;;;;;;2.22;100.00;99455.48;112721;1237;22389;-51
2024/01/26 08:14:07;;;;;;;4.40;3.20;;;;;;;2.23;100.00;99457.38;112378;1249;22790;-48
2024/01/26 08:16:37;;;;;;;4.10;2.80;;;;;;;2.23;100.00;99461.85;112696;1249;22523;-52
2024/01/26 08:19:08;;;;;;;5.10;3.60;;;;;;;2.24;100.00;99461.70;112424;1249;22354;-47
2024/01/26 08:21:35;;;;;;;5.30;3.50;;;;;;;2.25;100.00;99467.38;112660;1249;22370;-51
2024/01/26 08:24:05;;;;;;;4.20;3.00;;;;;;;2.30;100.00;99469.03;112807;1240;22528;-48
2024/01/26 08:26:32;;;;;;;3.90;3.20;;;;;;;2.34;100.00;99472.91;112890;1246;22245;-48
2024/01/26 08:28:59;;;;;;;3.80;2.90;;;;;;;2.36;100.00;99473.29;112794;1246;22452;-51
2024/01/26 08:31:44;;;;;;;3.30;2.60;;;;;;;2.38;100.00;99476.96;112805;1238;22354;-52
2024/01/26 08:34:17;;;;;;;4.20;3.10;;;;;;;2.38;100.00;99476.60;112701;1249;23405;-47
2024/01/26 08:36:44;;;;;;;4.30;3.80;;;;;;;2.38;100.00;99477.82;112764;1249;22385;-48
2024/01/26 08:39:12;;;;;;;7.70;3.30;;;;;;;2.41;100.00;99478.55;112796;1238;22240;-51
2024/01/26 08:41:43;;;;;;;4.10;2.80;;;;;;;2.43;100.00;99478.92;112896;1236;23187;-51
2024/01/26 08:44:11;;;;;;;3.50;2.80;;;;;;;2.43;100.00;99479.45;112769;1239;23203;-48
2024/01/26 08:46:44;;;;;;;3.90;3.00;;;;;;;2.44;100.00;99477.92;112767;1239;22432;-47
2024/01/26 08:49:11;;;;;;;4.20;2.90;;;;;;;2.45;100.00;99475.37;112791;1236;22378;-48
2024/01/26 08:51:38;;;;;;;3.50;3.00;;;;;;;2.46;100.00;99477.80;112874;1249;22401;-48
2024/01/26 08:54:05;;;;;;;4.90;3.10;;;;;;;2.47;100.00;99477.12;112854;1249;22998;-51
2024/01/26 08:56:32;;;;;;;4.50;2.80;;;;;;;2.46;100.00;99476.08;112828;1249;22377;-51
2024/01/26 08:59:00;;;;;;;4.00;2.60;;;;;;;2.46;100.00;99477.79;112824;1249;22414;-51
2024/01/26 09:01:28;;;;;;;3.20;2.70;;;;;;;2.46;100.00;99480.02;112795;1243;22420;-50
2024/01/26 09:03:55;;;;;;;3.40;2.50;;;;;;;2.46;100.00;99478.66;112706;1249;23426;-48
2024/01/26 09:06:23;;;;;;;3.40;2.50;;;;;;;2.47;100.00;99479.18;112818;1249;22373;-51
2024/01/26 09:08:51;;;;;;;3.50;2.70;;;;;;;2.45;100.00;99480.89;112630;1249;22610;-47
2024/01/26 09:11:18;;;;;;;3.70;2.70;;;;;;;2.43;100.00;99478.94;112675;1239;22395;-49
2024/01/26 09:13:50;;;;;;;3.80;2.50;;;;;;;2.40;100.00;99483.71;112803;1249;22449;-47
2024/01/26 09:16:43;;;;;;;3.00;2.70;;;;;;;2.39;100.00;99483.86;112760;1249;22463;-51
2024/01/26 09:19:10;;;;;;;3.40;3.10;;;;;;;2.41;100.00;99491.98;112737;1239;22336;-51
2024/01/26 09:21:37;;;;;;;4.70;3.30;;;;;;;2.43;100.00;99487.88;112608;1246;23420;-51
2024/01/26 09:24:05;;;;;;;4.00;3.00;;;;;;;2.45;100.00;99485.88;112723;1249;22367;-47
2024/01/26 09:26:32;;;;;;;4.50;3.00;;;;;;;2.50;100.00;99489.22;112751;1249;22865;-48
2024/01/26 09:29:00;;;;;;;3.50;2.80;;;;;;;2.53;100.00;99486.52;112739;1249;22217;-51
2024/01/26 09:31:27;;;;;;;3.40;3.00;;;;;;;2.53;100.00;99481.20;112683;1249;22376;-51
2024/01/26 09:33:54;;;;;;;2.80;2.50;;;;;;;2.52;100.00;99485.48;112746;1240;22380;-47
2024/01/26 09:36:21;;;;;;;5.40;3.40;;;;;;;2.51;100.00;99485.98;112802;1240;22731;-46
2024/01/26 09:38:49;;;;;;;4.10;3.50;;;;;;;2.53;100.00;99482.57;112798;1249;23121;-47
2024/01/26 09:41:16;;;;;;;5.30;2.80;;;;;;;2.58;100.00;99482.33;112838;1249;23233;-47
2024/01/26 09:43:43;;;;;;;3.40;2.80;;;;;;;2.63;100.00;99484.31;112895;1249;22393;-53
2024/01/26 09:46:10;;;;;;;3.10;2.20;;;;;;;2.68;100.00;99488.20;112744;1249;22518;-51
2024/01/26 09:48:38;;;;;;;3.70;3.10;;;;;;;2.72;100.00;99491.36;112821;1249;22400;-46
2024/01/26 09:51:05;;;;;;;4.10;2.80;;;;;;;2.72;100.00;99492.06;112806;1249;22471;-46
2024/01/26 09:53:37;;;;;;;4.40;2.80;;;;;;;2.73;100.00;99497.42;112865;1249;23356;-50
2024/01/26 09:56:04;;;;;;;3.00;2.60;;;;;;;2.76;100.00;99496.09;112737;1249;22432;-51
2024/01/26 09:58:32;;;;;;;4.50;3.20;;;;;;;2.81;100.00;99494.30;112873;1249;22315;-48
2024/01/26 10:00:59;;;;;;;4.00;3.00;;;;;;;2.84;100.00;99493.30;112796;1249;22428;-48
2024/01/26 10:03:28;;;;;;;3.20;2.60;;;;;;;2.86;100.00;99495.77;112395;1249;23209;-49
2024/01/26 10:06:00;;;;;;;4.80;2.80;;;;;;;2.85;100.00;99493.84;112641;1249;22423;-46
2024/01/26 10:08:39;;;;;;;3.80;2.90;;;;;;;2.81;100.00;99493.96;112794;1249;22442;-52
2024/01/26 10:11:11;;;;;;;3.10;2.80;;;;;;;2.80;100.00;99497.23;112686;1249;22414;-53
2024/01/26 10:13:40;;;;;;;3.20;2.80;;;;;;;2.85;100.00;99498.84;112467;1249;22950;-47
2024/01/26 10:16:08;;;;;;;3.90;3.00;;;;;;;2.89;100.00;99498.06;112728;1249;22414;-47
2024/01/26 10:18:43;;;;;;;5.00;3.40;;;;;;;2.92;100.00;99496.56;112709;1249;22957;-47
2024/01/26 10:21:11;;;;;;;11.30;3.90;;;;;;;2.90;100.00;99496.20;112673;1249;23260;-48
2024/01/26 10:23:40;;;;;;;4.70;3.30;;;;;;;2.88;100.00;99498.90;112624;1249;22384;-47
2024/01/26 10:26:27;;;;;;;4.20;3.20;;;;;;;2.88;100.00;99500.29;112669;1249;22407;-50
2024/01/26 10:29:19;;;;;;;5.80;3.60;;;;;;;2.90;100.00;99496.54;112537;1249;23016;-50
2024/01/26 10:34:52;;;;;;;5.60;4.10;;;;;;;2.95;100.00;99500.56;112534;1249;22605;-52
2024/01/26 10:37:28;;;;;;;6.00;3.60;;;;;;;2.95;100.00;99501.79;112433;1249;22416;-51
2024/01/26 10:39:57;;;;;;;5.00;3.10;;;;;;;2.95;100.00;99500.75;112824;1249;22360;-51
2024/01/26 10:42:24;;;;;;;5.20;3.20;;;;;;;2.95;100.00;99501.95;112807;1249;22414;-51
2024/01/26 10:44:52;;;;;;;6.30;3.80;;;;;;;2.94;100.00;99502.11;112841;1249;22375;-51
2024/01/26 10:47:19;;;;;;;7.40;3.60;;;;;;;2.96;100.00;99502.64;112810;1240;23482;-46
2024/01/26 10:49:49;;;;;;;3.80;3.30;;;;;;;3.02;100.00;99505.02;112872;1243;22263;-48
2024/01/26 10:52:19;;;;;;;4.60;4.00;;;;;;;3.10;100.00;99508.42;112891;1249;22374;-52
2024/01/26 10:54:50;;;;;;;;;;;;;;;3.18;100.00;99507.88;112798;1249;22411;-47
2024/01/26 10:57:22;;;;;;;3.90;3.00;;;;;;;3.26;100.00;99511.45;112895;1249;22451;-51
2024/01/26 10:59:51;;;;;;;5.40;3.60;;;;;;;3.30;100.00;99510.48;112736;1245;23025;-47
2024/01/26 11:02:27;;;;;;;4.30;3.00;;;;;;;3.31;100.00;99510.00;112803;1249;23168;-51
2024/01/26 11:04:54;;;;;;;4.00;3.20;;;;;;;3.33;100.00;99509.16;112756;1249;22916;-48
2024/01/26 11:07:23;;;;;;;4.10;3.60;;;;;;;3.32;100.00;99505.54;112533;1249;22380;-47
2024/01/26 11:09:51;;;;;;;4.50;3.50;;;;;;;3.31;100.00;99509.66;112619;1249;22408;-47
2024/01/26 11:12:19;;;;;;;6.40;3.50;;;;;;;3.25;100.00;99505.74;112734;1249;22249;-51
2024/01/26 11:15:12;;;;;;;5.40;4.00;;;;;;;3.13;100.00;99505.55;112680;1249;23183;-48
2024/01/26 11:17:51;;;;;;;4.20;3.70;;;;;;;3.00;100.00;99504.81;112682;1249;22395;-52
2024/01/26 11:20:38;;;;;;;6.60;4.10;;;;;;;2.91;100.00;99507.23;112735;1249;22325;-51
2024/01/26 11:23:18;;;;;;;8.20;4.30;;;;;;;2.85;100.00;99507.99;112691;1249;22400;-50
2024/01/26 11:25:52;;;;;;;7.80;3.90;;;;;;;2.83;100.00;99510.85;112591;1249;22316;-50
2024/01/26 11:28:26;;;;;;;4.90;3.50;;;;;;;2.80;100.00;99509.95;112689;1249;22427;-50
2024/01/26 11:30:54;;;;;;;4.20;3.10;;;;;;;2.78;100.00;99509.74;112679;1249;22237;-49
2024/01/26 11:33:23;;;;;;;3.80;3.50;;;;;;;2.80;100.00;99507.89;112647;1249;23222;-50
2024/01/26 11:36:04;;;;;;;4.60;3.60;;;;;;;2.80;100.00;99506.85;112443;1249;23215;-48
2024/01/26 11:38:44;;;;;;;4.30;3.70;;;;;;;2.77;100.00;99509.71;112589;1249;23161;-50
2024/01/26 11:41:55;;;;;;;7.60;4.40;;;;;;;2.74;100.00;99510.70;112634;1249;23196;-50
2024/01/26 11:45:41;;;;;;;3.30;3.00;;;;;;;2.73;100.00;99510.18;112686;1249;22825;-50
2024/01/26 11:49:22;;;;;;;4.20;3.20;;;;;;;2.78;100.00;99516.78;112749;1249;22429;-50
2024/01/26 11:57:35;;;;;;;8.20;4.60;;;;;;;2.73;100.00;99521.02;112756;1249;22913;-48
2024/01/26 12:05:08;;;;;;;6.60;4.40;;;;;;;2.75;100.00;99533.11;112831;1249;22386;-50
2024/01/26 12:07:54;;;;;;;5.50;4.10;;;;;;;2.74;100.00;99532.92;112854;1241;23140;-50
2024/01/26 12:10:27;;;;;;;5.00;3.70;;;;;;;2.70;100.00;99534.39;112902;1249;23276;-50
2024/01/26 12:12:54;;;;;;;5.10;4.40;;;;;;;2.66;100.00;99540.52;112815;1249;22407;-47
2024/01/26 12:15:21;;;;;;;6.00;3.80;;;;;;;2.61;100.00;99543.68;112877;1249;22384;-48
2024/01/26 12:17:48;;;;;;;5.10;3.70;;;;;;;2.58;100.00;99552.22;112763;1249;22380;-51
2024/01/26 12:20:16;;;;;;;4.20;3.40;;;;;;;2.54;100.00;99556.80;112747;1249;23145;-48
2024/01/26 12:22:44;;;;;;;7.10;4.50;;;;;;;2.50;100.00;99557.42;112849;1249;23177;-47
2024/01/26 12:25:13;;;;;;;4.50;3.70;;;;;;;2.48;100.00;99560.97;112859;1249;22373;-49
2024/01/26 12:27:42;;;;;;;7.60;3.60;;;;;;;2.46;100.00;99564.73;112753;1242;22840;-51
2024/01/26 12:30:10;;;;;;;3.80;3.40;;;;;;;2.43;100.00;99565.70;112679;1249;22396;-51
2024/01/26 12:32:39;;;;;;;4.40;3.60;;;;;;;2.43;100.00;99571.88;112770;1249;22411;-50
2024/01/26 12:35:07;;;;;;;3.70;3.30;;;;;;;2.43;100.00;99571.86;112560;1249;22262;-52
2024/01/26 12:37:34;;;;;;;3.40;3.00;;;;;;;2.44;100.00;99571.40;112667;1249;22438;-51
2024/01/26 12:40:01;;;;;;;3.30;2.90;;;;;;;2.45;100.00;99571.59;112655;1249;22362;-46
2024/01/26 12:42:28;;;;;;;4.20;3.10;;;;;;;2.46;100.00;99575.23;112699;1249;23202;-48
2024/01/26 12:44:56;;;;;;;5.80;3.40;;;;;;;2.47;100.00;99578.51;112693;1249;22368;-52
2024/01/26 12:47:23;;;;;;;3.20;2.80;;;;;;;2.47;100.00;99577.31;112677;1249;22346;-50
2024/01/26 12:49:52;;;;;;;3.30;2.90;;;;;;;2.48;100.00;99580.42;112703;1249;22390;-46
2024/01/26 12:52:19;;;;;;;5.10;3.40;;;;;;;2.50;100.00;99583.92;112679;1249;22474;-46
2024/01/26 12:54:52;;;;;;;4.80;3.60;;;;;;;2.52;100.00;99589.11;112722;1249;22398;-46
2024/01/26 12:57:18;;;;;;;6.30;3.60;;;;;;;2.52;100.00;99588.09;112702;1244;23133;-46
2024/01/26 12:59:45;;;;;;;6.50;3.70;;;;;;;2.53;100.00;99592.06;112773;1249;23030;-46
2024/01/26 13:02:14;;;;;;;4.60;3.40;;;;;;;2.53;100.00;99593.78;112748;1249;22379;-48
2024/01/26 13:04:42;;;;;;;4.30;3.80;;;;;;;2.54;100.00;99599.82;112717;1249;22392;-46
2024/01/26 13:07:10;;;;;;;6.20;4.80;;;;;;;2.55;100.00;99600.70;112699;1249;23721;-51
2024/01/26 13:09:37;;;;;;;8.30;4.80;;;;;;;2.56;100.00;99603.16;112808;1249;22389;-51
2024/01/26 13:12:04;;;;;;;7.00;5.00;;;;;;;2.56;100.00;99607.98;112810;1249;22393;-48
2024/01/26 13:14:32;;;;;;;7.70;5.40;;;;;;;2.55;100.00;99608.10;112859;1249;22943;-51
2024/01/26 13:16:59;;;;;;;7.90;4.90;;;;;;;2.53;100.00;99611.01;112842;1249;22361;-49
2024/01/26 13:19:26;;;;;;;7.90;4.70;;;;;;;2.51;100.00;99614.75;112846;1249;22384;-48
2024/01/26 13:21:54;;;;;;;4.70;3.80;;;;;;;2.48;100.00;99620.20;112875;1249;22384;-46
2024/01/26 13:24:22;;;;;;;4.30;3.80;;;;;;;2.43;100.00;99616.30;112913;1249;22470;-51
2024/01/26 13:26:49;;;;;;;4.40;3.90;;;;;;;2.39;100.00;99623.45;112919;1249;22237;-50
2024/01/26 13:29:16;;;;;;;6.00;4.60;;;;;;;2.35;100.00;99622.31;112951;1249;23148;-47
2024/01/26 13:31:43;;;;;;;5.50;4.90;;;;;;;2.33;100.00;99625.55;112907;1249;23183;-47
2024/01/26 13:34:10;;;;;;;6.10;4.50;;;;;;;2.31;100.00;99626.70;112883;1249;22376;-47
2024/01/26 13:36:39;;;;;;;4.90;4.00;;;;;;;2.30;100.00;99627.88;112793;1249;22226;-49
2024/01/26 13:39:06;;;;;;;4.60;4.10;;;;;;;2.29;100.00;99635.96;112916;1249;23020;-46
2024/01/26 13:41:33;;;;;;;3.90;3.20;;;;;;;2.29;100.00;99638.54;112920;1249;22384;-46
2024/01/26 13:44:00;;;;;;;4.50;4.10;;;;;;;2.29;100.00;99641.64;112932;1249;23653;-51
2024/01/26 13:46:27;;;;;;;9.40;6.90;;;;;;;2.30;100.00;99643.89;112922;1249;22357;-49
2024/01/26 13:48:54;;;;;;;7.30;5.50;;;;;;;2.31;100.00;99644.43;112896;1249;22388;-47
2024/01/26 13:51:21;;;;;;;8.60;6.20;;;;;;;2.32;100.00;99643.40;112938;1249;22441;-51
2024/01/26 13:53:48;;;;;;;7.70;5.70;;;;;;;2.32;100.00;99643.27;112822;1249;23101;-47
2024/01/26 13:56:16;;;;;;;8.10;6.60;;;;;;;2.32;100.00;99643.42;112950;1249;22082;-51
2024/01/26 13:58:43;;;;;;;8.80;6.00;;;;;;;2.32;100.00;99642.20;112956;1249;22206;-51
2024/01/26 14:01:10;;;;;;;11.30;8.30;;;;;;;2.32;100.00;99649.08;112956;1249;22426;-51
2024/01/26 14:03:39;;;;;;;8.90;7.00;;;;;;;2.31;100.00;99648.38;112969;1249;22364;-47
2024/01/26 14:06:07;;;;;;;8.60;7.60;;;;;;;2.30;100.00;99653.35;112926;1249;23194;-51
2024/01/26 14:08:34;;;;;;;8.50;7.60;;;;;;;2.27;100.00;99658.97;112792;1249;22434;-51
2024/01/26 14:11:01;;;;;;;10.80;9.00;;;;;;;2.22;100.00;99658.17;112903;1249;22377;-47
2024/01/26 14:13:29;;;;;;;22.10;17.00;;;;;;;2.19;100.00;99659.80;112972;1249;22426;-47
2024/01/26 14:15:59;;;;;;;21.10;17.00;;;;;;;2.14;100.00;99661.95;112969;1237;23001;-51
2024/01/26 14:18:26;;;;;;;15.60;13.30;;;;;;;2.08;100.00;99665.23;113003;1249;22413;-51
2024/01/26 14:20:53;;;;;;;9.80;7.80;;;;;;;2.02;100.00;99668.52;112992;1249;22364;-47
2024/01/26 14:23:20;;;;;;;6.70;5.30;;;;;;;1.95;100.00;99670.95;112991;1249;22385;-47
2024/01/26 14:25:50;;;;;;;6.60;5.00;;;;;;;1.90;100.00;99674.77;112973;1249;22290;-48
2024/01/26 14:28:18;;;;;;;6.80;4.80;;;;;;;1.86;100.00;99684.48;113027;1249;22257;-47
2024/01/26 14:30:48;;;;;;;5.20;4.40;;;;;;;1.82;100.00;99689.88;113016;1249;22370;-50
2024/01/26 14:33:15;;;;;;;7.00;5.20;;;;;;;1.79;100.00;99694.80;112973;1249;22373;-51
2024/01/26 14:35:43;;;;;;;9.30;7.00;;;;;;;1.78;100.00;99694.77;113006;1249;22442;-48
2024/01/26 14:38:12;;;;;;;9.00;5.90;;;;;;;1.77;100.00;99699.02;113029;1249;23193;-51
2024/01/26 14:40:39;;;;;;;13.60;6.80;;;;;;;1.74;100.00;99701.20;112957;1249;22378;-50
2024/01/26 14:43:09;;;;;;;13.00;7.40;;;;;;;1.70;100.00;99699.39;112986;1249;22393;-50
2024/01/26 14:45:36;;;;;;;17.90;9.90;;;;;;;1.68;100.00;99701.55;112975;1249;22373;-47
2024/01/26 14:48:07;;;;;;;19.60;11.70;;;;;;;1.66;100.00;99706.30;113024;1249;22517;-47
2024/01/26 14:50:35;;;;;;;22.40;12.20;;;;;;;1.64;100.00;99713.31;112965;1249;22249;-47
2024/01/26 14:53:02;;;;;;;26.30;13.20;;;;;;;1.61;100.00;99714.78;112948;1249;22458;-46
2024/01/26 14:55:29;;;;;;;25.70;13.30;;;;;;;1.59;100.00;99717.83;112969;1249;22425;-51
2024/01/26 14:58:00;;;;;;;29.00;13.30;;;;;;;1.56;100.00;99721.17;113002;1249;22252;-51
2024/01/26 15:00:28;;;;;;;30.70;14.70;;;;;;;1.52;100.00;99721.94;113038;1249;23026;-51
2024/01/26 15:02:55;;;;;;;31.30;16.30;;;;;;;1.49;100.00;99723.21;113027;1249;22238;-48
2024/01/26 15:05:25;;;;;;;31.00;15.30;;;;;;;1.46;100.00;99726.95;113039;1249;22376;-50
2024/01/26 15:07:52;;;;;;;28.40;13.60;;;;;;;1.44;100.00;99728.92;113038;1249;23343;-46
2024/01/26 15:10:21;;;;;;;35.60;19.30;;;;;;;1.42;100.00;99730.77;112986;1249;23240;-46
2024/01/26 15:12:48;;;;;;;42.30;25.90;;;;;;;1.41;100.00;99731.25;113018;1249;23290;-50
2024/01/26 15:15:18;;;;;;;40.10;21.10;;;;;;;1.40;100.00;99730.73;113025;1249;22263;-46
2024/01/26 15:17:47;;;;;;;32.60;19.20;;;;;;;1.40;100.00;99731.77;113031;1247;22404;-50
2024/01/26 15:20:14;;;;;;;25.90;14.90;;;;;;;1.41;100.00;99738.98;113027;1249;22242;-50
2024/01/26 15:22:44;;;;;;;32.10;16.40;;;;;;;1.41;100.00;99744.66;113040;1249;22390;-47
2024/01/26 15:25:13;;;;;;;31.00;15.70;;;;;;;1.42;100.00;99742.80;113001;1249;22308;-47
2024/01/26 15:27:40;;;;;;;32.00;16.70;;;;;;;1.42;100.00;99744.86;112988;1249;22438;-46
2024/01/26 15:30:08;;;;;;;28.70;16.80;;;;;;;1.43;100.00;99744.89;113030;1249;22360;-48
2024/01/26 15:32:35;;;;;;;28.30;17.70;;;;;;;1.44;100.00;99749.06;113009;1249;22422;-48
2024/01/26 15:35:02;;;;;;;33.90;18.60;;;;;;;1.45;100.00;99757.14;113015;1249;22358;-48
2024/01/26 15:37:29;;;;;;;31.10;16.40;;;;;;;1.45;100.00;99760.27;113027;1249;22445;-46
2024/01/26 15:39:56;;;;;;;26.10;16.50;;;;;;;1.45;100.00;99759.56;113013;1249;22248;-46
2024/01/26 15:42:22;;;;;;;25.90;14.60;;;;;;;1.43;100.00;99756.40;112981;1249;23216;-46
